sensor_id;sensor_type;location;lat;lon;timestamp;pressure;altitude;pressure_sealevel;temperature;humidity
18678;BME280;9469;51.114;13.914;2024-01-15T00:00:23;96916.22;;;1.43;100.00
18678;BME280;9469;51.114;13.914;2024-01-15T00:05:28;96906.31;;;1.40;100.00
18678;BME280;9469;51.114;13.914;2024-01-15T00:10:33;96898.28;;;1.50;100.00
18678;BME280;9469;51.114;13.914;2024-01-15T00:15:41;96894.28;;;1.39;100.00
18678;BME280;9469;51.114;13.914;2024-01-15T00:20:46;96887.31;;;1.48;100.00
18678;BME280;9469;51.114;13.914;2024-01-15T00:25:52;96890.81;;;1.43;100.00
18678;BME280;9469;51.114;13.914;2024-01-15T00:30:59;96885.50;;;1.49;100.00
18678;BME280;9469;51.114;13.914;2024-01-15T00:36:07;96876.50;;;1.36;100.00
18678;BME280;9469;51.114;13.914;2024-01-15T00:41:13;96864.97;;;1.37;100.00
18678;BME280;9469;51.114;13.914;2024-01-15T00:46:21;96874.72;;;1.31;100.00
18678;BME280;9469;51.114;13.914;2024-01-15T00:51:26;96877.22;;;1.41;100.00
18678;BME280;9469;51.114;13.914;2024-01-15T00:56:31;96877.56;;;1.35;100.00
18678;BME280;9469;51.114;13.914;2024-01-15T01:01:39;96865.53;;;1.34;100.00
18678;BME280;9469;51.114;13.914;2024-01-15T01:06:45;96841.09;;;1.38;100.00
18678;BME280;9469;51.114;13.914;2024-01-15T01:11:50;96848.63;;;1.26;100.00
18678;BME280;9469;51.114;13.914;2024-01-15T01:16:58;96841.03;;;1.25;100.00
18678;BME280;9469;51.114;13.914;2024-01-15T01:22:03;96825.50;;;1.15;100.00
18678;BME280;9469;51.114;13.914;2024-01-15T01:27:09;96828.31;;;1.18;100.00
18678;BME280;9469;51.114;13.914;2024-01-15T01:32:16;96831.72;;;1.19;100.00
18678;BME280;9469;51.114;13.914;2024-01-15T01:37:22;96835.97;;;1.15;100.00
18678;BME280;9469;51.114;13.914;2024-01-15T01:42:28;96815.44;;;1.22;100.00
18678;BME280;9469;51.114;13.914;2024-01-15T01:47:35;96829.53;;;1.26;100.00
18678;BME280;9469;51.114;13.914;2024-01-15T01:52:41;96815.09;;;1.10;100.00
18678;BME280;9469;51.114;13.914;2024-01-15T01:57:48;96812.91;;;1.17;100.00
18678;BME280;9469;51.114;13.914;2024-01-15T02:02:58;96816.88;;;1.14;100.00
18678;BME280;9469;51.114;13.914;2024-01-15T02:08:03;96805.34;;;1.15;100.00
18678;BME280;9469;51.114;13.914;2024-01-15T02:13:12;96799.75;;;1.03;100.00
18678;BME280;9469;51.114;13.914;2024-01-15T02:18:19;96802.06;;;1.05;100.00
18678;BME280;9469;51.114;13.914;2024-01-15T02:23:31;96805.59;;;1.14;100.00
18678;BME280;9469;51.114;13.914;2024-01-15T02:28:36;96801.59;;;1.03;100.00
18678;BME280;9469;51.114;13.914;2024-01-15T02:33:43;96792.69;;;1.04;100.00
18678;BME280;9469;51.114;13.914;2024-01-15T02:38:51;96792.75;;;0.99;100.00
18678;BME280;9469;51.114;13.914;2024-01-15T02:43:57;96773.75;;;0.75;100.00
18678;BME280;9469;51.114;13.914;2024-01-15T02:49:02;96779.38;;;0.82;100.00
18678;BME280;9469;51.114;13.914;2024-01-15T02:54:10;96782.41;;;0.89;100.00
18678;BME280;9469;51.114;13.914;2024-01-15T02:59:15;96766.44;;;0.90;100.00
18678;BME280;9469;51.114;13.914;2024-01-15T03:04:22;96763.66;;;0.82;100.00
18678;BME280;9469;51.114;13.914;2024-01-15T03:09:30;96768.56;;;0.88;100.00
18678;BME280;9469;51.114;13.914;2024-01-15T03:14:35;96754.91;;;0.91;100.00
18678;BME280;9469;51.114;13.914;2024-01-15T03:19:40;96762.06;;;0.86;100.00
18678;BME280;9469;51.114;13.914;2024-01-15T03:24:48;96766.22;;;0.87;100.00
18678;BME280;9469;51.114;13.914;2024-01-15T03:29:53;96761.13;;;0.95;100.00
18678;BME280;9469;51.114;13.914;2024-01-15T03:34:58;96759.88;;;0.93;100.00
18678;BME280;9469;51.114;13.914;2024-01-15T03:40:08;96764.19;;;0.84;100.00
18678;BME280;9469;51.114;13.914;2024-01-15T03:45:13;96767.72;;;0.74;100.00
18678;BME280;9469;51.114;13.914;2024-01-15T03:50:18;96769.69;;;0.63;100.00
18678;BME280;9469;51.114;13.914;2024-01-15T03:55:26;96752.31;;;0.54;100.00
18678;BME280;9469;51.114;13.914;2024-01-15T04:00:31;96758.09;;;0.51;100.00
18678;BME280;9469;51.114;13.914;2024-01-15T04:05:38;96743.75;;;0.67;100.00
18678;BME280;9469;51.114;13.914;2024-01-15T04:10:46;96759.94;;;0.50;100.00
18678;BME280;9469;51.114;13.914;2024-01-15T04:15:51;96757.31;;;0.50;100.00
18678;BME280;9469;51.114;13.914;2024-01-15T04:20:58;96758.81;;;0.56;100.00
18678;BME280;9469;51.114;13.914;2024-01-15T04:26:10;96749.47;;;0.50;100.00
18678;BME280;9469;51.114;13.914;2024-01-15T04:31:23;96736.06;;;0.38;100.00
18678;BME280;9469;51.114;13.914;2024-01-15T04:36:29;96733.84;;;0.45;100.00
18678;BME280;9469;51.114;13.914;2024-01-15T04:41:37;96737.72;;;0.48;100.00
18678;BME280;9469;51.114;13.914;2024-01-15T04:46:43;96738.59;;;0.43;100.00
18678;BME280;9469;51.114;13.914;2024-01-15T04:51:48;96743.19;;;0.51;100.00
18678;BME280;9469;51.114;13.914;2024-01-15T04:56:56;96760.72;;;0.51;100.00
18678;BME280;9469;51.114;13.914;2024-01-15T05:02:01;96760.38;;;0.57;100.00
18678;BME280;9469;51.114;13.914;2024-01-15T05:07:12;96758.94;;;0.46;100.00
18678;BME280;9469;51.114;13.914;2024-01-15T05:12:20;96758.41;;;0.49;100.00
18678;BME280;9469;51.114;13.914;2024-01-15T05:17:25;96757.19;;;0.42;100.00
18678;BME280;9469;51.114;13.914;2024-01-15T05:22:30;96778.56;;;0.25;100.00
18678;BME280;9469;51.114;13.914;2024-01-15T05:27:38;96766.56;;;0.24;100.00
18678;BME280;9469;51.114;13.914;2024-01-15T05:32:43;96764.38;;;0.31;100.00
18678;BME280;9469;51.114;13.914;2024-01-15T05:37:50;96755.97;;;0.34;100.00
18678;BME280;9469;51.114;13.914;2024-01-15T05:42:57;96749.53;;;0.27;100.00
18678;BME280;9469;51.114;13.914;2024-01-15T05:48:03;96753.00;;;0.41;100.00
18678;BME280;9469;51.114;13.914;2024-01-15T05:53:08;96757.72;;;0.39;100.00
18678;BME280;9469;51.114;13.914;2024-01-15T05:58:16;96757.31;;;0.50;100.00
18678;BME280;9469;51.114;13.914;2024-01-15T06:03:21;96762.97;;;0.39;100.00
18678;BME280;9469;51.114;13.914;2024-01-15T06:08:29;96767.66;;;0.60;100.00
18678;BME280;9469;51.114;13.914;2024-01-15T06:13:39;96748.44;;;0.51;100.00
18678;BME280;9469;51.114;13.914;2024-01-15T06:18:46;96749.41;;;0.37;100.00
18678;BME280;9469;51.114;13.914;2024-01-15T06:23:52;96753.06;;;0.54;100.00
18678;BME280;9469;51.114;13.914;2024-01-15T06:29:01;96727.06;;;0.44;100.00
18678;BME280;9469;51.114;13.914;2024-01-15T06:34:06;96739.25;;;0.54;100.00
18678;BME280;9469;51.114;13.914;2024-01-15T06:39:12;96744.31;;;0.45;100.00
18678;BME280;9469;51.114;13.914;2024-01-15T06:44:20;96738.50;;;0.48;100.00
18678;BME280;9469;51.114;13.914;2024-01-15T06:49:25;96732.44;;;0.34;100.00
18678;BME280;9469;51.114;13.914;2024-01-15T06:54:32;96741.97;;;0.44;100.00
18678;BME280;9469;51.114;13.914;2024-01-15T06:59:40;96746.16;;;0.45;100.00
18678;BME280;9469;51.114;13.914;2024-01-15T07:05:03;96748.84;;;0.40;100.00
18678;BME280;9469;51.114;13.914;2024-01-15T07:10:09;96755.41;;;0.37;100.00
18678;BME280;9469;51.114;13.914;2024-01-15T07:15:22;96755.97;;;0.34;100.00
18678;BME280;9469;51.114;13.914;2024-01-15T07:20:31;96763.13;;;0.47;100.00
18678;BME280;9469;51.114;13.914;2024-01-15T07:25:42;96770.56;;;0.17;100.00
18678;BME280;9469;51.114;13.914;2024-01-15T07:30:53;96776.19;;;0.29;100.00
18678;BME280;9469;51.114;13.914;2024-01-15T07:36:01;96783.34;;;0.18;100.00
18678;BME280;9469;51.114;13.914;2024-01-15T07:41:14;96799.63;;;0.15;100.00
18678;BME280;9469;51.114;13.914;2024-01-15T07:46:23;96793.53;;;0.20;100.00
18678;BME280;9469;51.114;13.914;2024-01-15T07:51:31;96796.16;;;0.20;100.00
18678;BME280;9469;51.114;13.914;2024-01-15T07:56:55;96787.53;;;0.19;100.00
18678;BME280;9469;51.114;13.914;2024-01-15T08:02:03;96780.47;;;0.20;100.00
18678;BME280;9469;51.114;13.914;2024-01-15T08:07:09;96787.91;;;0.31;100.00
18678;BME280;9469;51.114;13.914;2024-01-15T08:12:15;96800.91;;;0.36;100.00
18678;BME280;9469;51.114;13.914;2024-01-15T08:17:25;96799.06;;;0.37;100.00
18678;BME280;9469;51.114;13.914;2024-01-15T08:22:38;96811.31;;;0.41;100.00
18678;BME280;9469;51.114;13.914;2024-01-15T08:27:45;96822.28;;;0.43;100.00
18678;BME280;9469;51.114;13.914;2024-01-15T08:32:53;96816.28;;;0.43;100.00
18678;BME280;9469;51.114;13.914;2024-01-15T08:38:10;96818.91;;;0.43;100.00
18678;BME280;9469;51.114;13.914;2024-01-15T08:43:20;96812.94;;;0.37;100.00
18678;BME280;9469;51.114;13.914;2024-01-15T08:48:29;96816.16;;;0.53;99.79
18678;BME280;9469;51.114;13.914;2024-01-15T08:53:37;96799.56;;;0.39;100.00
18678;BME280;9469;51.114;13.914;2024-01-15T08:58:46;96795.22;;;0.53;99.67
18678;BME280;9469;51.114;13.914;2024-01-15T09:03:55;96802.16;;;0.62;98.79
18678;BME280;9469;51.114;13.914;2024-01-15T09:09:00;96807.66;;;0.80;98.87
18678;BME280;9469;51.114;13.914;2024-01-15T09:14:08;96803.16;;;0.85;96.90
18678;BME280;9469;51.114;13.914;2024-01-15T09:19:22;96805.78;;;0.85;97.35
18678;BME280;9469;51.114;13.914;2024-01-15T09:24:28;96809.66;;;1.06;96.44
18678;BME280;9469;51.114;13.914;2024-01-15T09:29:36;96811.91;;;1.13;95.27
18678;BME280;9469;51.114;13.914;2024-01-15T09:34:46;96818.69;;;1.32;94.50
18678;BME280;9469;51.114;13.914;2024-01-15T09:39:52;96829.69;;;1.48;93.27
18678;BME280;9469;51.114;13.914;2024-01-15T09:44:58;96827.47;;;1.55;93.49
18678;BME280;9469;51.114;13.914;2024-01-15T09:50:11;96817.94;;;1.45;93.14
18678;BME280;9469;51.114;13.914;2024-01-15T09:55:18;96809.13;;;1.23;92.81
18678;BME280;9469;51.114;13.914;2024-01-15T10:00:23;96809.97;;;1.37;92.90
18678;BME280;9469;51.114;13.914;2024-01-15T10:05:33;96799.09;;;1.43;93.30
18678;BME280;9469;51.114;13.914;2024-01-15T10:10:39;96791.31;;;1.38;93.76
18678;BME280;9469;51.114;13.914;2024-01-15T10:15:45;96784.66;;;1.46;93.46
18678;BME280;9469;51.114;13.914;2024-01-15T10:20:56;96787.09;;;1.56;93.32
18678;BME280;9469;51.114;13.914;2024-01-15T10:26:04;96795.63;;;1.48;92.74
18678;BME280;9469;51.114;13.914;2024-01-15T10:31:10;96777.84;;;1.45;91.12
18678;BME280;9469;51.114;13.914;2024-01-15T10:36:23;96780.81;;;1.57;91.15
18678;BME280;9469;51.114;13.914;2024-01-15T10:41:29;96786.72;;;1.49;91.28
18678;BME280;9469;51.114;13.914;2024-01-15T10:46:37;96785.94;;;1.49;91.47
18678;BME280;9469;51.114;13.914;2024-01-15T10:51:45;96777.31;;;1.62;90.75
18678;BME280;9469;51.114;13.914;2024-01-15T10:56:54;96777.13;;;1.58;91.48
18678;BME280;9469;51.114;13.914;2024-01-15T11:02:01;96781.59;;;1.58;91.55
18678;BME280;9469;51.114;13.914;2024-01-15T11:07:10;96776.44;;;1.53;90.83
18678;BME280;9469;51.114;13.914;2024-01-15T11:12:17;96779.34;;;1.51;91.80
18678;BME280;9469;51.114;13.914;2024-01-15T11:17:24;96768.28;;;1.54;90.38
18678;BME280;9469;51.114;13.914;2024-01-15T11:22:52;96778.13;;;1.76;90.45
18678;BME280;9469;51.114;13.914;2024-01-15T11:28:00;96772.53;;;1.50;90.43
18678;BME280;9469;51.114;13.914;2024-01-15T11:33:05;96791.78;;;1.73;91.02
18678;BME280;9469;51.114;13.914;2024-01-15T11:38:26;96773.13;;;1.61;89.79
18678;BME280;9469;51.114;13.914;2024-01-15T11:43:32;96753.91;;;1.65;90.18
18678;BME280;9469;51.114;13.914;2024-01-15T11:48:43;96758.50;;;1.73;89.61
18678;BME280;9469;51.114;13.914;2024-01-15T11:53:55;96774.91;;;1.92;88.67
18678;BME280;9469;51.114;13.914;2024-01-15T11:59:13;96755.91;;;1.87;89.30
18678;BME280;9469;51.114;13.914;2024-01-15T12:04:20;96760.94;;;2.10;89.28
18678;BME280;9469;51.114;13.914;2024-01-15T12:09:30;96752.59;;;1.95;89.00
18678;BME280;9469;51.114;13.914;2024-01-15T12:14:35;96759.00;;;1.89;89.21
18678;BME280;9469;51.114;13.914;2024-01-15T12:19:42;96752.09;;;1.79;89.69
18678;BME280;9469;51.114;13.914;2024-01-15T12:24:50;96747.31;;;1.68;90.75
18678;BME280;9469;51.114;13.914;2024-01-15T12:29:56;96752.56;;;1.68;91.27
18678;BME280;9469;51.114;13.914;2024-01-15T12:35:05;96742.69;;;1.78;91.32
18678;BME280;9469;51.114;13.914;2024-01-15T12:40:18;96747.63;;;1.66;93.81
18678;BME280;9469;51.114;13.914;2024-01-15T12:45:26;96745.56;;;1.63;93.47
18678;BME280;9469;51.114;13.914;2024-01-15T12:50:33;96758.09;;;1.66;94.15
18678;BME280;9469;51.114;13.914;2024-01-15T12:55:41;96744.31;;;1.61;93.70
18678;BME280;9469;51.114;13.914;2024-01-15T13:00:47;96748.31;;;1.72;93.63
18678;BME280;9469;51.114;13.914;2024-01-15T13:05:54;96732.38;;;1.68;95.38
18678;BME280;9469;51.114;13.914;2024-01-15T13:11:04;96724.03;;;1.66;95.36
18678;BME280;9469;51.114;13.914;2024-01-15T13:16:10;96734.44;;;1.71;96.28
18678;BME280;9469;51.114;13.914;2024-01-15T13:21:17;96753.44;;;1.77;96.26
18678;BME280;9469;51.114;13.914;2024-01-15T13:26:27;96746.16;;;1.60;97.05
18678;BME280;9469;51.114;13.914;2024-01-15T13:31:35;96743.56;;;1.60;97.06
18678;BME280;9469;51.114;13.914;2024-01-15T13:36:40;96753.56;;;1.58;97.78
18678;BME280;9469;51.114;13.914;2024-01-15T13:41:52;96755.13;;;1.40;98.62
18678;BME280;9469;51.114;13.914;2024-01-15T13:46:58;96760.69;;;1.39;99.04
18678;BME280;9469;51.114;13.914;2024-01-15T13:52:03;96777.84;;;1.45;100.00
18678;BME280;9469;51.114;13.914;2024-01-15T13:57:14;96786.63;;;1.22;100.00
18678;BME280;9469;51.114;13.914;2024-01-15T14:02:20;96790.16;;;1.31;100.00
18678;BME280;9469;51.114;13.914;2024-01-15T14:07:28;96799.25;;;1.20;100.00
18678;BME280;9469;51.114;13.914;2024-01-15T14:12:39;96803.34;;;0.89;100.00
18678;BME280;9469;51.114;13.914;2024-01-15T14:17:45;96812.91;;;0.80;100.00
18678;BME280;9469;51.114;13.914;2024-01-15T14:22:50;96799.13;;;0.74;100.00
18678;BME280;9469;51.114;13.914;2024-01-15T14:27:59;96791.19;;;0.98;100.00
18678;BME280;9469;51.114;13.914;2024-01-15T14:33:07;96807.25;;;0.72;100.00
18678;BME280;9469;51.114;13.914;2024-01-15T14:38:13;96805.75;;;0.66;100.00
18678;BME280;9469;51.114;13.914;2024-01-15T14:43:26;96811.47;;;0.50;100.00
18678;BME280;9469;51.114;13.914;2024-01-15T14:48:33;96822.94;;;0.54;100.00
18678;BME280;9469;51.114;13.914;2024-01-15T14:53:39;96826.25;;;0.59;100.00
18678;BME280;9469;51.114;13.914;2024-01-15T14:58:49;96828.56;;;0.42;100.00
18678;BME280;9469;51.114;13.914;2024-01-15T15:03:56;96826.59;;;0.11;100.00
18678;BME280;9469;51.114;13.914;2024-01-15T15:09:03;96817.69;;;0.12;100.00
18678;BME280;9469;51.114;13.914;2024-01-15T15:14:14;96826.09;;;0.09;100.00
18678;BME280;9469;51.114;13.914;2024-01-15T15:19:20;96837.59;;;0.08;100.00
18678;BME280;9469;51.114;13.914;2024-01-15T15:24:28;96831.41;;;-0.02;100.00
18678;BME280;9469;51.114;13.914;2024-01-15T15:29:40;96838.66;;;0.07;100.00
18678;BME280;9469;51.114;13.914;2024-01-15T15:34:54;96845.69;;;0.11;100.00
18678;BME280;9469;51.114;13.914;2024-01-15T15:39:59;96851.94;;;0.10;100.00
18678;BME280;9469;51.114;13.914;2024-01-15T15:45:09;96852.50;;;0.31;100.00
18678;BME280;9469;51.114;13.914;2024-01-15T15:50:19;96849.50;;;0.19;100.00
18678;BME280;9469;51.114;13.914;2024-01-15T15:55:24;96854.34;;;0.30;100.00
18678;BME280;9469;51.114;13.914;2024-01-15T16:00:35;96869.03;;;0.26;100.00
18678;BME280;9469;51.114;13.914;2024-01-15T16:05:44;96873.25;;;0.22;100.00
18678;BME280;9469;51.114;13.914;2024-01-15T16:10:54;96871.66;;;0.26;100.00
18678;BME280;9469;51.114;13.914;2024-01-15T16:16:03;96884.03;;;0.39;100.00
18678;BME280;9469;51.114;13.914;2024-01-15T16:21:29;96881.94;;;0.41;100.00
18678;BME280;9469;51.114;13.914;2024-01-15T16:26:56;96907.75;;;0.48;100.00
18678;BME280;9469;51.114;13.914;2024-01-15T16:32:06;96894.63;;;0.53;100.00
18678;BME280;9469;51.114;13.914;2024-01-15T16:37:12;96908.97;;;0.55;100.00
18678;BME280;9469;51.114;13.914;2024-01-15T16:42:17;96903.19;;;0.58;100.00
18678;BME280;9469;51.114;13.914;2024-01-15T16:47:26;96904.75;;;0.59;100.00
18678;BME280;9469;51.114;13.914;2024-01-15T16:52:31;96915.44;;;0.63;100.00
18678;BME280;9469;51.114;13.914;2024-01-15T16:57:37;96914.16;;;0.60;100.00
18678;BME280;9469;51.114;13.914;2024-01-15T17:02:51;96902.19;;;0.54;100.00
18678;BME280;9469;51.114;13.914;2024-01-15T17:07:58;96917.13;;;0.54;100.00
18678;BME280;9469;51.114;13.914;2024-01-15T17:13:05;96916.88;;;0.50;100.00
18678;BME280;9469;51.114;13.914;2024-01-15T17:18:13;96931.41;;;0.38;100.00
18678;BME280;9469;51.114;13.914;2024-01-15T17:23:19;96921.91;;;0.47;100.00
18678;BME280;9469;51.114;13.914;2024-01-15T17:28:24;96929.84;;;0.37;100.00
18678;BME280;9469;51.114;13.914;2024-01-15T17:33:32;96932.44;;;0.37;100.00
18678;BME280;9469;51.114;13.914;2024-01-15T17:38:37;96929.78;;;0.42;100.00
18678;BME280;9469;51.114;13.914;2024-01-15T17:43:42;96930.63;;;0.37;100.00
18678;BME280;9469;51.114;13.914;2024-01-15T17:48:52;96936.19;;;0.31;100.00
18678;BME280;9469;51.114;13.914;2024-01-15T17:54:00;96936.84;;;0.41;100.00
18678;BME280;9469;51.114;13.914;2024-01-15T17:59:06;96937.97;;;0.35;100.00
18678;BME280;9469;51.114;13.914;2024-01-15T18:04:15;96949.47;;;0.63;100.00
18678;BME280;9469;51.114;13.914;2024-01-15T18:09:23;96946.38;;;0.56;100.00
18678;BME280;9469;51.114;13.914;2024-01-15T18:14:28;96960.31;;;0.51;100.00
18678;BME280;9469;51.114;13.914;2024-01-15T18:19:37;96966.75;;;0.59;100.00
18678;BME280;9469;51.114;13.914;2024-01-15T18:24:46;96975.44;;;0.54;100.00
18678;BME280;9469;51.114;13.914;2024-01-15T18:29:53;96971.47;;;0.57;100.00
18678;BME280;9469;51.114;13.914;2024-01-15T18:35:04;96975.16;;;0.56;100.00
18678;BME280;9469;51.114;13.914;2024-01-15T18:40:11;96986.56;;;0.41;100.00
18678;BME280;9469;51.114;13.914;2024-01-15T18:45:18;96988.56;;;0.49;100.00
18678;BME280;9469;51.114;13.914;2024-01-15T18:50:26;96986.56;;;0.41;100.00
18678;BME280;9469;51.114;13.914;2024-01-15T18:55:31;96986.38;;;0.33;100.00
18678;BME280;9469;51.114;13.914;2024-01-15T19:00:36;96991.94;;;0.26;100.00
18678;BME280;9469;51.114;13.914;2024-01-15T19:05:45;96992.44;;;0.28;100.00
18678;BME280;9469;51.114;13.914;2024-01-15T19:10:51;96990.72;;;0.14;100.00
18678;BME280;9469;51.114;13.914;2024-01-15T19:15:57;96997.28;;;0.11;100.00
18678;BME280;9469;51.114;13.914;2024-01-15T19:21:06;96999.34;;;0.14;100.00
18678;BME280;9469;51.114;13.914;2024-01-15T19:26:16;96997.97;;;0.22;100.00
18678;BME280;9469;51.114;13.914;2024-01-15T19:31:22;97010.78;;;0.23;100.00
18678;BME280;9469;51.114;13.914;2024-01-15T19:36:34;96997.19;;;0.21;100.00
18678;BME280;9469;51.114;13.914;2024-01-15T19:41:39;97009.84;;;0.09;100.00
18678;BME280;9469;51.114;13.914;2024-01-15T19:46:48;97008.50;;;0.12;100.00
18678;BME280;9469;51.114;13.914;2024-01-15T19:51:56;97003.03;;;0.13;100.00
18678;BME280;9469;51.114;13.914;2024-01-15T19:57:02;97024.50;;;0.05;100.00
18678;BME280;9469;51.114;13.914;2024-01-15T20:02:08;97029.16;;;0.13;100.00
18678;BME280;9469;51.114;13.914;2024-01-15T20:07:16;97035.72;;;0.11;100.00
18678;BME280;9469;51.114;13.914;2024-01-15T20:12:22;97033.06;;;0.16;100.00
18678;BME280;9469;51.114;13.914;2024-01-15T20:17:27;97032.03;;;0.12;100.00
18678;BME280;9469;51.114;13.914;2024-01-15T20:22:36;97047.94;;;0.20;100.00
18678;BME280;9469;51.114;13.914;2024-01-15T20:27:42;97059.16;;;0.21;100.00
18678;BME280;9469;51.114;13.914;2024-01-15T20:32:47;97077.22;;;0.22;100.00
18678;BME280;9469;51.114;13.914;2024-01-15T20:37:57;97071.91;;;0.27;100.00
18678;BME280;9469;51.114;13.914;2024-01-15T20:43:03;97064.59;;;0.29;100.00
18678;BME280;9469;51.114;13.914;2024-01-15T20:48:09;97076.41;;;0.27;100.00
18678;BME280;9469;51.114;13.914;2024-01-15T20:53:17;97087.34;;;0.29;100.00
18678;BME280;9469;51.114;13.914;2024-01-15T20:58:23;97102.47;;;0.32;100.00
18678;BME280;9469;51.114;13.914;2024-01-15T21:03:31;97093.31;;;0.34;100.00
18678;BME280;9469;51.114;13.914;2024-01-15T21:08:44;97112.69;;;0.33;100.00
18678;BME280;9469;51.114;13.914;2024-01-15T21:13:49;97115.34;;;0.28;100.00
18678;BME280;9469;51.114;13.914;2024-01-15T21:18:54;97107.50;;;0.28;100.00
18678;BME280;9469;51.114;13.914;2024-01-15T21:24:03;97112.72;;;0.28;100.00
18678;BME280;9469;51.114;13.914;2024-01-15T21:29:08;97129.97;;;0.29;100.00
18678;BME280;9469;51.114;13.914;2024-01-15T21:34:14;97142.00;;;0.25;100.00
18678;BME280;9469;51.114;13.914;2024-01-15T21:39:25;97133.69;;;0.18;100.00
18678;BME280;9469;51.114;13.914;2024-01-15T21:44:31;97146.41;;;0.35;100.00
18678;BME280;9469;51.114;13.914;2024-01-15T21:49:37;97146.19;;;0.31;100.00
18678;BME280;9469;51.114;13.914;2024-01-15T21:54:45;97159.00;;;0.28;100.00
18678;BME280;9469;51.114;13.914;2024-01-15T21:59:51;97164.88;;;0.48;100.00
18678;BME280;9469;51.114;13.914;2024-01-15T22:04:58;97166.72;;;0.48;100.00
18678;BME280;9469;51.114;13.914;2024-01-15T22:10:08;97188.22;;;0.40;100.00
18678;BME280;9469;51.114;13.914;2024-01-15T22:15:14;97200.94;;;0.13;100.00
18678;BME280;9469;51.114;13.914;2024-01-15T22:20:19;97192.81;;;0.14;100.00
18678;BME280;9469;51.114;13.914;2024-01-15T22:25:30;97191.47;;;0.22;100.00
18678;BME280;9469;51.114;13.914;2024-01-15T22:30:37;97212.09;;;0.28;100.00
18678;BME280;9469;51.114;13.914;2024-01-15T22:35:44;97222.22;;;0.40;100.00
18678;BME280;9469;51.114;13.914;2024-01-15T22:40:53;97225.06;;;0.43;100.00
18678;BME280;9469;51.114;13.914;2024-01-15T22:46:01;97222.03;;;0.31;100.00
18678;BME280;9469;51.114;13.914;2024-01-15T22:51:06;97247.06;;;0.47;100.00
18678;BME280;9469;51.114;13.914;2024-01-15T22:56:17;97242.47;;;0.19;100.00
18678;BME280;9469;51.114;13.914;2024-01-15T23:01:23;97241.44;;;0.20;100.00
18678;BME280;9469;51.114;13.914;2024-01-15T23:06:28;97261.28;;;0.21;100.00
18678;BME280;9469;51.114;13.914;2024-01-15T23:11:36;97255.56;;;0.14;100.00
18678;BME280;9469;51.114;13.914;2024-01-15T23:16:42;97269.13;;;0.16;100.00
18678;BME280;9469;51.114;13.914;2024-01-15T23:21:48;97263.41;;;0.14;100.00
18678;BME280;9469;51.114;13.914;2024-01-15T23:26:55;97271.25;;;0.14;100.00
18678;BME280;9469;51.114;13.914;2024-01-15T23:32:01;97269.72;;;0.08;100.00
18678;BME280;9469;51.114;13.914;2024-01-15T23:37:07;97282.22;;;0.16;100.00
18678;BME280;9469;51.114;13.914;2024-01-15T23:42:14;97291.06;;;0.25;100.00
18678;BME280;9469;51.114;13.914;2024-01-15T23:47:19;97304.66;;;0.27;100.00
18678;BME280;9469;51.114;13.914;2024-01-15T23:52:25;97299.72;;;0.26;100.00
18678;BME280;9469;51.114;13.914;2024-01-15T23:57:33;97316.69;;;0.28;100.00
